Time;durP1;ratioP1;P1;durP2;ratioP2;P2;SDS_P1;SDS_P2;PMS_P1;PMS_P2;Temp;Humidity;BMP_temperature;BMP_pressure;BME280_temperature;BME280_humidity;BME280_pressure;Samples;Min_cycle;Max_cycle;Signal;HPM_P1;HPM_P2
2021/01/07 00:18:47;;;;;;;9.70;8.87;;;2.60;99.90;;;;;;5527487;23;20687;-96
2021/01/07 00:21:29;;;;;;;10.20;9.30;;;2.60;99.90;;;;;;5052457;28;20666;-95
2021/01/07 00:24:11;;;;;;;8.87;8.07;;;2.60;99.90;;;;;;5037313;28;20664;-95
2021/01/07 00:26:38;;;;;;;8.80;8.10;;;2.60;99.90;;;;;;5056589;28;20643;-94
2021/01/07 00:29:06;;;;;;;8.63;7.90;;;2.50;99.90;;;;;;5057391;28;20704;-94
2021/01/07 00:31:33;;;;;;;8.27;7.60;;;2.80;99.90;;;;;;5057905;28;20658;-95
2021/01/07 00:41:53;;;;;;;7.60;7.00;;;2.90;99.90;;;;;;5086826;22;20672;-94
2021/01/07 00:44:22;;;;;;;7.10;6.60;;;3.00;99.90;;;;;;5037263;28;20659;-94
2021/01/07 01:41:50;;;;;;;8.30;7.60;;;2.80;99.90;;;;;;4942519;29;20690;-94
2021/01/07 02:00:36;;;;;;;8.93;8.20;;;2.50;99.90;;;;;;5019945;23;20673;-94
2021/01/07 02:03:06;;;;;;;8.47;7.77;;;2.60;99.90;;;;;;5013982;28;20661;-96
2021/01/07 02:05:42;;;;;;;9.23;8.50;;;2.50;99.90;;;;;;5325672;23;20680;-93
2021/01/07 02:08:21;;;;;;;8.93;8.07;;;2.50;99.90;;;;;;5008481;28;20781;-95
2021/01/07 02:10:48;;;;;;;9.13;8.33;;;2.50;99.90;;;;;;4998299;28;20641;-94
2021/01/07 02:13:16;;;;;;;8.27;7.57;;;2.50;99.90;;;;;;4997377;28;20695;-93
2021/01/07 02:15:48;;;;;;;8.60;7.60;;;2.60;99.90;;;;;;4994766;28;20673;-95
2021/01/07 02:18:14;;;;;;;9.20;8.40;;;2.70;99.90;;;;;;5000452;28;20641;-94
2021/01/07 02:20:42;;;;;;;9.30;8.50;;;2.60;99.90;;;;;;5007723;28;20672;-94
2021/01/07 02:23:12;;;;;;;8.70;7.90;;;2.50;99.90;;;;;;5006291;28;20703;-93
2021/01/07 02:25:40;;;;;;;9.80;9.00;;;2.50;99.90;;;;;;5005366;28;20668;-93
2021/01/07 02:28:08;;;;;;;7.83;7.13;;;2.40;99.90;;;;;;5007062;28;20648;-94
2021/01/07 02:30:34;;;;;;;8.50;7.70;;;2.40;99.90;;;;;;5002027;28;20652;-94
2021/01/07 02:33:01;;;;;;;9.30;8.50;;;2.40;99.90;;;;;;5002041;28;21151;-93
2021/01/07 02:35:27;;;;;;;8.50;7.70;;;2.30;99.90;;;;;;5003074;28;20677;-92
2021/01/07 02:37:55;;;;;;;8.77;7.97;;;2.20;99.90;;;;;;5007445;28;21028;-92
2021/01/07 02:40:25;;;;;;;9.13;8.33;;;2.30;99.90;;;;;;5001486;28;21566;-95
2021/01/07 02:42:51;;;;;;;9.20;8.40;;;2.30;99.90;;;;;;5005035;28;20633;-95
2021/01/07 02:45:18;;;;;;;8.83;8.00;;;2.20;99.90;;;;;;5009084;28;20669;-93
2021/01/07 02:47:50;;;;;;;8.67;7.97;;;2.20;99.90;;;;;;5012861;28;20687;-96
2021/01/07 02:50:16;;;;;;;8.70;8.00;;;2.30;99.90;;;;;;5004028;28;20682;-93
2021/01/07 02:52:44;;;;;;;10.07;9.07;;;2.30;99.90;;;;;;5004254;28;21164;-94
2021/01/07 02:55:12;;;;;;;9.17;8.37;;;2.30;99.90;;;;;;5000946;28;20683;-93
2021/01/07 02:57:42;;;;;;;10.40;9.40;;;2.20;99.90;;;;;;5004041;28;20640;-94
2021/01/07 03:00:14;;;;;;;8.67;7.87;;;2.20;99.90;;;;;;5008554;28;20672;-95
2021/01/07 03:05:16;;;;;;;8.03;7.33;;;2.20;99.90;;;;;;5445927;23;20771;-95
2021/01/07 03:07:42;;;;;;;7.20;6.60;;;2.30;99.90;;;;;;4970595;28;20650;-94
2021/01/07 03:10:13;;;;;;;7.30;6.70;;;2.20;99.90;;;;;;4954145;28;20653;-93
2021/01/07 03:12:41;;;;;;;8.40;7.80;;;2.20;99.90;;;;;;4963687;28;21207;-94
2021/01/07 03:15:17;;;;;;;8.10;7.50;;;2.20;99.90;;;;;;4953531;28;20625;-93
2021/01/07 03:17:45;;;;;;;8.20;7.50;;;2.10;99.90;;;;;;4939846;28;21212;-94
2021/01/07 03:20:23;;;;;;;7.20;6.70;;;2.10;99.90;;;;;;4968109;28;20682;-94
2021/01/07 03:22:51;;;;;;;6.50;5.90;;;2.10;99.90;;;;;;4941488;29;20670;-95
2021/01/07 03:25:20;;;;;;;5.90;5.40;;;2.10;99.90;;;;;;4946820;28;20674;-95
2021/01/07 03:27:47;;;;;;;6.23;5.67;;;2.10;99.90;;;;;;4957318;28;20643;-93
2021/01/07 03:30:16;;;;;;;6.07;5.53;;;2.10;99.90;;;;;;4960458;28;20635;-94
2021/01/07 03:32:42;;;;;;;5.43;4.97;;;2.10;99.90;;;;;;4962815;28;21221;-94
2021/01/07 03:35:12;;;;;;;6.27;5.73;;;2.00;99.90;;;;;;4957054;28;20665;-92
2021/01/07 03:37:46;;;;;;;5.10;4.70;;;2.00;99.90;;;;;;4951782;28;20724;-95
2021/01/07 03:40:14;;;;;;;5.80;5.37;;;1.90;99.90;;;;;;4954215;28;20688;-94
2021/01/07 03:42:49;;;;;;;5.50;5.10;;;1.90;99.90;;;;;;4949855;28;21388;-95
2021/01/07 03:45:16;;;;;;;6.40;5.90;;;2.00;99.90;;;;;;4938833;28;20689;-93
2021/01/07 03:47:42;;;;;;;5.77;5.30;;;2.00;99.90;;;;;;4953537;28;20646;-94
2021/01/07 03:50:11;;;;;;;6.07;5.47;;;1.90;99.90;;;;;;4954450;28;20653;-93
2021/01/07 03:52:39;;;;;;;6.00;5.50;;;1.90;99.90;;;;;;4944997;28;20653;-95
2021/01/07 03:55:08;;;;;;;5.70;5.30;;;2.00;99.90;;;;;;4934461;28;20652;-95
2021/01/07 03:57:37;;;;;;;6.10;5.67;;;1.90;99.90;;;;;;4934981;28;20647;-96
2021/01/07 04:00:11;;;;;;;5.87;5.37;;;2.00;99.90;;;;;;4959950;28;20687;-94
2021/01/07 04:02:38;;;;;;;5.77;5.30;;;2.10;99.90;;;;;;4956232;28;20740;-92
2021/01/07 04:05:05;;;;;;;6.23;5.73;;;2.00;99.90;;;;;;4956982;28;20663;-94
2021/01/07 04:07:32;;;;;;;5.57;5.13;;;2.10;99.90;;;;;;4942550;28;20639;-93
2021/01/07 04:09:58;;;;;;;6.80;6.20;;;2.00;99.90;;;;;;4957255;28;20625;-94
2021/01/07 04:12:25;;;;;;;6.20;5.70;;;1.90;99.90;;;;;;4956489;28;20740;-94
2021/01/07 04:14:52;;;;;;;6.50;6.00;;;2.00;99.90;;;;;;4939775;28;20686;-93
2021/01/07 04:17:20;;;;;;;6.23;5.73;;;2.20;99.90;;;;;;4938772;28;20751;-94
2021/01/07 04:19:46;;;;;;;6.80;6.30;;;2.10;99.90;;;;;;4954223;28;20648;-95
2021/01/07 04:22:13;;;;;;;7.53;6.83;;;2.00;99.90;;;;;;4937368;28;20658;-91
2021/01/07 04:24:39;;;;;;;7.10;6.60;;;2.00;99.90;;;;;;4950359;28;20672;-91
2021/01/07 04:27:06;;;;;;;7.33;6.73;;;2.00;99.90;;;;;;4933167;28;21100;-91
2021/01/07 04:29:34;;;;;;;6.00;5.60;;;2.00;99.90;;;;;;4947748;28;20662;-91
2021/01/07 04:32:00;;;;;;;6.90;6.40;;;2.00;99.90;;;;;;4929565;28;21182;-91
2021/01/07 04:34:28;;;;;;;7.30;6.70;;;1.90;99.90;;;;;;4952952;28;20668;-91
2021/01/07 04:36:54;;;;;;;8.00;7.30;;;1.90;99.90;;;;;;4939967;28;20647;-90
2021/01/07 04:39:21;;;;;;;8.50;7.90;;;2.00;99.90;;;;;;4947241;28;20645;-90
2021/01/07 04:41:47;;;;;;;7.70;7.10;;;2.00;99.90;;;;;;4947404;28;20685;-91
2021/01/07 04:44:14;;;;;;;7.10;6.40;;;2.10;99.90;;;;;;4948058;28;20672;-90
2021/01/07 04:46:40;;;;;;;7.83;7.13;;;2.10;99.90;;;;;;4950136;28;20806;-90
2021/01/07 04:49:09;;;;;;;7.30;6.70;;;2.20;99.90;;;;;;4948336;28;20653;-90
2021/01/07 04:51:36;;;;;;;7.50;6.90;;;2.30;99.90;;;;;;4947676;28;20645;-90
2021/01/07 04:54:03;;;;;;;7.43;6.83;;;2.20;99.90;;;;;;4946574;28;20671;-89
2021/01/07 04:56:29;;;;;;;8.13;7.43;;;2.20;99.90;;;;;;4950372;28;20647;-89
2021/01/07 04:58:56;;;;;;;7.23;6.60;;;2.20;99.90;;;;;;4951167;28;20646;-89
2021/01/07 05:01:23;;;;;;;9.17;8.37;;;2.10;99.90;;;;;;4955978;28;20764;-90
2021/01/07 05:03:52;;;;;;;8.67;7.97;;;2.00;99.90;;;;;;4946225;28;20669;-90
2021/01/07 05:06:25;;;;;;;8.07;7.37;;;2.00;99.90;;;;;;4940402;28;20711;-91
2021/01/07 05:08:59;;;;;;;9.17;8.30;;;2.10;99.90;;;;;;4955743;28;20647;-90
2021/01/07 05:11:28;;;;;;;8.90;8.10;;;2.00;99.90;;;;;;4950974;28;20644;-90
2021/01/07 05:13:58;;;;;;;9.97;9.13;;;2.10;99.90;;;;;;4933440;28;20679;-90
2021/01/07 05:16:29;;;;;;;8.43;7.83;;;2.10;99.90;;;;;;4952054;28;20636;-90
2021/01/07 05:18:56;;;;;;;8.93;8.13;;;2.10;99.90;;;;;;4951359;28;20704;-89
2021/01/07 05:21:23;;;;;;;8.77;8.07;;;2.00;99.90;;;;;;4948802;28;20728;-90
2021/01/07 05:23:51;;;;;;;9.67;8.80;;;2.00;99.90;;;;;;4952070;28;20650;-89
2021/01/07 05:26:22;;;;;;;8.50;7.77;;;2.00;99.90;;;;;;4937381;28;20645;-91
2021/01/07 05:28:52;;;;;;;7.87;7.17;;;2.00;99.90;;;;;;4953385;28;20626;-91
2021/01/07 05:31:22;;;;;;;8.53;7.73;;;2.10;99.90;;;;;;4951989;28;21457;-92
2021/01/07 05:33:50;;;;;;;8.90;8.10;;;2.20;99.90;;;;;;4950025;28;20687;-92
2021/01/07 05:36:21;;;;;;;7.80;7.20;;;2.20;99.90;;;;;;4953551;28;20647;-90
2021/01/07 05:38:49;;;;;;;8.43;7.73;;;2.30;99.90;;;;;;4935694;28;20637;-91
2021/01/07 05:41:18;;;;;;;9.10;8.30;;;2.20;99.90;;;;;;4946421;28;20700;-90
2021/01/07 05:43:45;;;;;;;8.80;8.03;;;2.10;99.90;;;;;;4951826;28;20684;-90
2021/01/07 05:46:17;;;;;;;8.67;7.97;;;2.10;99.90;;;;;;4946740;28;21211;-91
2021/01/07 05:48:53;;;;;;;9.77;8.97;;;2.20;99.90;;;;;;4955845;28;20636;-90
2021/01/07 05:51:23;;;;;;;8.50;7.80;;;2.20;99.90;;;;;;4949603;28;20633;-92
2021/01/07 05:53:52;;;;;;;9.47;8.67;;;2.20;99.90;;;;;;4965497;28;20714;-91
2021/01/07 05:56:20;;;;;;;9.57;8.70;;;2.20;99.90;;;;;;4957869;28;20661;-90
2021/01/07 05:58:49;;;;;;;9.00;8.30;;;2.20;99.90;;;;;;4963317;28;20670;-90
2021/01/07 06:01:17;;;;;;;9.00;8.20;;;2.20;99.90;;;;;;4966206;28;20665;-89
2021/01/07 06:03:48;;;;;;;9.80;9.00;;;2.20;99.90;;;;;;4969817;28;20672;-90
2021/01/07 06:06:17;;;;;;;9.20;8.40;;;2.20;99.90;;;;;;4974116;28;20646;-90
2021/01/07 06:08:49;;;;;;;9.47;8.63;;;2.20;99.90;;;;;;4975869;28;20641;-90
2021/01/07 06:11:20;;;;;;;8.67;7.97;;;2.20;99.90;;;;;;4971343;28;20997;-91
2021/01/07 06:13:55;;;;;;;9.07;8.27;;;2.20;99.90;;;;;;4975076;28;20679;-90
2021/01/07 06:16:24;;;;;;;9.23;8.43;;;2.30;99.90;;;;;;4970920;28;20646;-91
2021/01/07 06:18:50;;;;;;;9.77;8.90;;;2.30;99.90;;;;;;4971540;28;20666;-90
2021/01/07 06:21:18;;;;;;;9.43;8.53;;;2.30;99.90;;;;;;4957984;28;20681;-89
2021/01/07 06:23:47;;;;;;;10.23;9.43;;;2.30;99.90;;;;;;4950656;28;20687;-89
2021/01/07 06:26:24;;;;;;;9.47;8.67;;;2.30;99.90;;;;;;4953728;28;20763;-91
2021/01/07 06:28:59;;;;;;;10.97;9.97;;;2.40;99.90;;;;;;4960641;28;20771;-90
2021/01/07 06:31:32;;;;;;;10.30;9.40;;;2.40;99.90;;;;;;4954588;28;20644;-91
2021/01/07 06:33:59;;;;;;;10.03;9.13;;;2.30;99.90;;;;;;4955635;28;20853;-91
2021/01/07 06:36:36;;;;;;;10.03;9.13;;;2.30;99.90;;;;;;4954471;28;20721;-90
2021/01/07 06:39:05;;;;;;;10.03;9.13;;;2.20;99.90;;;;;;4938985;28;20655;-90
2021/01/07 06:41:31;;;;;;;11.00;10.00;;;2.30;99.90;;;;;;4953305;28;20681;-91
2021/01/07 06:44:03;;;;;;;9.40;8.50;;;2.30;99.90;;;;;;4959820;28;21215;-91
2021/01/07 06:46:44;;;;;;;10.73;9.77;;;2.30;99.90;;;;;;4957543;28;20639;-91
2021/01/07 06:49:21;;;;;;;10.87;9.87;;;2.30;99.90;;;;;;4956555;28;20672;-91
2021/01/07 06:51:59;;;;;;;11.67;10.67;;;2.20;99.90;;;;;;4957589;28;20642;-90
2021/01/07 06:54:33;;;;;;;10.00;9.10;;;2.20;99.90;;;;;;4961436;28;20667;-92
2021/01/07 06:57:02;;;;;;;11.83;10.73;;;2.10;99.90;;;;;;4961626;28;20633;-90
2021/01/07 06:59:31;;;;;;;10.83;9.83;;;2.10;99.90;;;;;;4961271;28;20627;-91
2021/01/07 07:02:00;;;;;;;10.03;9.23;;;2.00;99.90;;;;;;4953113;28;20681;-89
2021/01/07 07:04:30;;;;;;;10.20;9.30;;;2.20;99.90;;;;;;4952881;28;20678;-90
2021/01/07 07:07:03;;;;;;;10.43;9.47;;;2.30;99.90;;;;;;4961170;28;20645;-90
2021/01/07 07:09:41;;;;;;;11.50;10.40;;;2.30;99.90;;;;;;4955739;28;20650;-90
2021/01/07 07:12:09;;;;;;;11.27;10.33;;;2.30;99.90;;;;;;4956060;28;20630;-92
2021/01/07 07:14:36;;;;;;;11.27;10.27;;;2.30;99.90;;;;;;4953617;28;20729;-90
2021/01/07 07:17:07;;;;;;;10.10;9.20;;;2.40;99.90;;;;;;4955401;28;20999;-91
2021/01/07 07:19:37;;;;;;;11.70;10.70;;;2.30;99.90;;;;;;4955567;28;21186;-90
2021/01/07 07:22:06;;;;;;;11.93;10.83;;;2.10;99.90;;;;;;4943625;28;20678;-90
2021/01/07 07:24:34;;;;;;;12.97;11.77;;;2.20;99.90;;;;;;4957418;28;20678;-90
2021/01/07 07:27:09;;;;;;;12.20;11.10;;;2.20;99.90;;;;;;4938392;28;20655;-91
2021/01/07 07:29:44;;;;;;;11.67;10.67;;;2.10;99.90;;;;;;4935246;28;20634;-90
2021/01/07 07:32:24;;;;;;;11.00;9.90;;;2.10;99.90;;;;;;4955909;28;20638;-91
2021/01/07 07:34:51;;;;;;;14.70;13.20;;;2.20;99.90;;;;;;4954325;28;20639;-91
2021/01/07 07:37:21;;;;;;;12.37;11.20;;;2.20;99.90;;;;;;4956388;28;20634;-91
2021/01/07 07:39:50;;;;;;;13.50;12.27;;;2.30;99.90;;;;;;4942911;28;20988;-91
2021/01/07 07:42:17;;;;;;;13.00;11.67;;;2.20;99.90;;;;;;4960321;28;20681;-91
2021/01/07 07:44:46;;;;;;;11.90;10.83;;;2.20;99.90;;;;;;4955684;28;20663;-91
2021/01/07 07:47:12;;;;;;;13.73;12.33;;;2.40;99.90;;;;;;4940442;28;20655;-92
2021/01/07 07:49:40;;;;;;;29.57;24.57;;;2.50;99.90;;;;;;4953778;28;20689;-91
2021/01/07 07:52:06;;;;;;;21.17;18.97;;;2.60;99.90;;;;;;4955511;28;20649;-90
2021/01/07 07:54:41;;;;;;;29.13;25.97;;;2.60;99.90;;;;;;4956011;28;20666;-92
2021/01/07 07:57:14;;;;;;;14.00;12.17;;;2.60;99.90;;;;;;4959276;28;20748;-91
2021/01/07 07:59:46;;;;;;;15.07;13.67;;;2.40;99.90;;;;;;4952153;28;20701;-91
2021/01/07 08:02:16;;;;;;;13.20;12.10;;;2.30;99.90;;;;;;4956699;28;20724;-91
2021/01/07 08:04:43;;;;;;;16.30;14.80;;;2.30;99.90;;;;;;4955070;28;20658;-91
2021/01/07 08:07:10;;;;;;;15.77;14.17;;;2.40;99.90;;;;;;4953747;28;21005;-90
2021/01/07 08:09:36;;;;;;;13.50;12.20;;;2.50;99.90;;;;;;4959921;28;20658;-91
2021/01/07 08:12:04;;;;;;;16.43;14.73;;;2.40;99.90;;;;;;4953054;28;20646;-90
2021/01/07 08:14:31;;;;;;;14.93;13.43;;;2.40;99.90;;;;;;4952263;28;20661;-92
2021/01/07 08:17:03;;;;;;;17.10;15.50;;;2.60;99.90;;;;;;4955459;28;20657;-91
2021/01/07 08:19:32;;;;;;;14.93;13.47;;;2.60;99.90;;;;;;4956328;28;20642;-90
2021/01/07 08:22:01;;;;;;;13.83;12.33;;;2.60;99.90;;;;;;4957139;28;20708;-91
2021/01/07 08:24:41;;;;;;;13.30;12.00;;;2.60;99.90;;;;;;4953026;28;20647;-91
2021/01/07 08:27:19;;;;;;;13.40;11.93;;;2.60;99.90;;;;;;4959123;28;20642;-90
2021/01/07 08:29:47;;;;;;;12.73;11.50;;;2.70;99.90;;;;;;4952357;28;20653;-91
2021/01/07 08:32:18;;;;;;;13.03;11.83;;;2.70;99.90;;;;;;4953269;28;20948;-90
2021/01/07 08:34:46;;;;;;;13.83;12.53;;;2.60;99.90;;;;;;4955675;28;20698;-91
2021/01/07 08:37:16;;;;;;;13.60;12.40;;;2.60;99.90;;;;;;4954529;28;20665;-90
2021/01/07 08:39:43;;;;;;;13.17;11.87;;;2.70;99.90;;;;;;4950406;28;20654;-91
2021/01/07 08:42:14;;;;;;;14.03;12.53;;;2.70;99.90;;;;;;4957586;28;20674;-91
2021/01/07 08:44:40;;;;;;;12.43;11.23;;;2.80;99.90;;;;;;4951400;28;20674;-90
2021/01/07 08:47:22;;;;;;;13.13;11.83;;;2.80;99.90;;;;;;4965126;28;20626;-90
2021/01/07 08:50:01;;;;;;;13.50;12.20;;;2.90;99.90;;;;;;4973025;28;20722;-91
2021/01/07 08:52:27;;;;;;;12.37;11.20;;;2.90;99.90;;;;;;4953742;28;21269;-91
2021/01/07 08:54:54;;;;;;;14.53;13.10;;;3.00;99.90;;;;;;4936154;28;20639;-92
2021/01/07 08:57:22;;;;;;;13.70;11.43;;;3.00;99.90;;;;;;4953526;28;20627;-92
2021/01/07 08:59:48;;;;;;;13.50;12.13;;;2.90;99.90;;;;;;4950816;28;20651;-91
2021/01/07 09:02:20;;;;;;;12.87;11.77;;;3.10;99.90;;;;;;4949601;28;21427;-90
2021/01/07 09:04:50;;;;;;;12.87;11.67;;;3.00;99.90;;;;;;4951562;28;20696;-89
2021/01/07 09:07:20;;;;;;;13.00;11.80;;;3.00;99.90;;;;;;4952675;28;20741;-89
2021/01/07 09:09:48;;;;;;;12.80;11.70;;;2.90;99.90;;;;;;4948346;28;21054;-91
2021/01/07 09:12:22;;;;;;;13.43;12.13;;;3.00;99.90;;;;;;4946715;28;20647;-91
2021/01/07 09:14:54;;;;;;;12.93;11.73;;;3.10;99.90;;;;;;4930451;28;20652;-91
2021/01/07 09:17:22;;;;;;;15.03;12.70;;;3.10;99.90;;;;;;4952973;28;20643;-91
2021/01/07 09:19:50;;;;;;;13.20;12.07;;;3.10;99.90;;;;;;4951471;28;20656;-90
2021/01/07 09:22:17;;;;;;;11.47;10.43;;;3.10;99.90;;;;;;4952976;28;20681;-90
2021/01/07 09:24:44;;;;;;;12.80;11.73;;;3.10;99.90;;;;;;4953965;28;20963;-90
2021/01/07 09:27:16;;;;;;;14.20;12.80;;;3.20;99.90;;;;;;4952327;28;21057;-89
2021/01/07 09:29:43;;;;;;;12.40;11.23;;;3.40;99.90;;;;;;4946338;28;21078;-89
2021/01/07 09:32:20;;;;;;;14.73;12.90;;;3.30;99.90;;;;;;4951629;28;20629;-89
2021/01/07 09:34:50;;;;;;;15.27;13.77;;;3.30;99.90;;;;;;4955723;28;21067;-90
2021/01/07 09:37:18;;;;;;;15.97;14.37;;;3.30;99.90;;;;;;4955703;28;20751;-90
2021/01/07 09:39:45;;;;;;;16.47;14.83;;;3.40;99.90;;;;;;4953328;28;20650;-90
2021/01/07 09:42:14;;;;;;;14.07;12.77;;;3.40;99.90;;;;;;4951917;28;20679;-91
2021/01/07 09:44:43;;;;;;;15.10;13.70;;;3.50;99.90;;;;;;4953736;28;21223;-92
2021/01/07 09:47:11;;;;;;;14.00;12.63;;;3.50;99.90;;;;;;4958929;28;20643;-90
2021/01/07 09:49:38;;;;;;;13.47;12.27;;;3.40;99.90;;;;;;4959251;28;21201;-90
2021/01/07 09:52:07;;;;;;;12.67;11.47;;;3.40;99.90;;;;;;4959621;28;20640;-91
2021/01/07 09:54:35;;;;;;;12.47;11.40;;;3.50;99.90;;;;;;4973432;28;22411;-90
2021/01/07 09:57:04;;;;;;;12.57;11.37;;;3.60;99.90;;;;;;4974806;28;20698;-90
2021/01/07 09:59:32;;;;;;;10.43;9.50;;;3.60;99.90;;;;;;4958168;28;20638;-91
2021/01/07 10:01:59;;;;;;;10.50;9.50;;;3.80;99.90;;;;;;4971166;28;20674;-90
2021/01/07 10:04:27;;;;;;;10.07;9.13;;;3.90;99.90;;;;;;4975832;28;20658;-91
2021/01/07 10:06:54;;;;;;;10.77;9.87;;;3.90;99.90;;;;;;4976575;28;20640;-92
2021/01/07 10:09:22;;;;;;;15.50;14.10;;;4.00;99.90;;;;;;4959319;28;20645;-90
2021/01/07 10:11:52;;;;;;;16.50;14.90;;;3.80;99.90;;;;;;4977701;28;20825;-90
2021/01/07 10:14:20;;;;;;;13.50;12.30;;;3.80;99.90;;;;;;4973110;28;22435;-92
2021/01/07 10:16:53;;;;;;;14.80;11.67;;;3.70;99.90;;;;;;4956421;28;20609;-92
2021/01/07 10:19:23;;;;;;;14.80;11.70;;;3.80;99.90;;;;;;4970588;28;20707;-91
2021/01/07 10:21:58;;;;;;;12.33;11.13;;;3.90;99.90;;;;;;4955292;28;20669;-91
2021/01/07 10:24:43;;;;;;;12.90;11.70;;;3.80;99.90;;;;;;4968827;28;20640;-91
2021/01/07 10:27:14;;;;;;;13.03;11.80;;;3.80;99.90;;;;;;4962230;28;20683;-91
2021/01/07 10:29:42;;;;;;;12.80;11.60;;;4.00;99.90;;;;;;4961213;28;20647;-90
2021/01/07 10:32:09;;;;;;;14.37;12.97;;;4.00;99.90;;;;;;4956234;28;20685;-90
2021/01/07 10:34:40;;;;;;;13.13;11.83;;;3.90;99.90;;;;;;4953148;28;20655;-92
2021/01/07 10:37:07;;;;;;;14.23;13.00;;;3.80;99.90;;;;;;4960563;28;20638;-92
2021/01/07 10:39:36;;;;;;;16.60;14.90;;;3.70;99.90;;;;;;4954925;28;20640;-90
2021/01/07 10:42:04;;;;;;;15.03;13.73;;;3.80;99.90;;;;;;4953455;28;20679;-92
2021/01/07 10:44:39;;;;;;;15.47;13.97;;;3.80;99.90;;;;;;4958854;28;20634;-90
2021/01/07 10:47:07;;;;;;;15.37;13.93;;;3.90;99.90;;;;;;4958088;28;20649;-89
2021/01/07 10:49:36;;;;;;;14.63;13.33;;;4.00;99.90;;;;;;4952288;28;20710;-91
2021/01/07 10:52:32;;;;;;;15.43;14.03;;;4.10;99.90;;;;;;4953373;28;20648;-91
2021/01/07 10:55:10;;;;;;;17.80;16.10;;;4.10;99.90;;;;;;4946629;28;20714;-90
2021/01/07 10:58:02;;;;;;;16.13;14.63;;;4.10;99.90;;;;;;4953886;28;20647;-92
2021/01/07 11:00:39;;;;;;;16.20;14.70;;;4.10;99.90;;;;;;4919278;28;20631;-90
2021/01/07 11:03:27;;;;;;;17.00;15.40;;;4.10;99.90;;;;;;4938013;28;21089;-89
2021/01/07 11:05:59;;;;;;;23.47;20.17;;;4.10;99.90;;;;;;4952510;28;20657;-91
2021/01/07 11:08:37;;;;;;;20.87;18.77;;;4.30;99.90;;;;;;4956895;28;20639;-92
2021/01/07 11:11:10;;;;;;;12.83;11.83;;;4.50;99.90;;;;;;4937793;28;21342;-93
2021/01/07 11:13:40;;;;;;;16.77;15.07;;;4.40;99.90;;;;;;4953641;28;20676;-92
2021/01/07 11:16:16;;;;;;;15.50;13.90;;;4.60;99.90;;;;;;4952686;28;20629;-93
2021/01/07 11:18:48;;;;;;;13.20;11.93;;;4.60;99.90;;;;;;4949424;28;20640;-91
2021/01/07 11:21:21;;;;;;;15.17;13.77;;;4.70;99.90;;;;;;4950734;28;20673;-91
2021/01/07 11:23:48;;;;;;;13.70;12.30;;;4.60;99.90;;;;;;4951217;28;20694;-91
2021/01/07 11:26:22;;;;;;;13.67;12.40;;;4.50;99.90;;;;;;4948221;28;20640;-89
2021/01/07 11:28:52;;;;;;;13.27;12.07;;;4.60;99.90;;;;;;4950048;28;20659;-91
2021/01/07 11:31:19;;;;;;;13.47;12.27;;;4.50;99.90;;;;;;4949257;28;20998;-91
2021/01/07 11:33:50;;;;;;;13.77;12.57;;;4.50;99.90;;;;;;4942243;28;21094;-91
2021/01/07 11:36:20;;;;;;;14.40;13.07;;;4.60;99.90;;;;;;4949956;28;20971;-91
2021/01/07 11:38:54;;;;;;;14.80;13.43;;;4.70;99.90;;;;;;4952812;28;20637;-91
2021/01/07 11:41:46;;;;;;;13.50;12.20;;;4.80;99.90;;;;;;4950198;28;20668;-91
2021/01/07 11:44:30;;;;;;;12.90;11.70;;;4.80;99.90;;;;;;4937556;28;20702;-92
2021/01/07 11:47:05;;;;;;;13.87;12.57;;;4.70;99.90;;;;;;4936548;28;21086;-91
2021/01/07 11:49:38;;;;;;;12.30;11.20;;;4.60;99.90;;;;;;4948430;28;20649;-92
2021/01/07 11:52:07;;;;;;;14.03;12.77;;;4.70;99.90;;;;;;4944726;28;20644;-92
2021/01/07 11:54:34;;;;;;;12.23;11.03;;;4.80;99.90;;;;;;4952697;28;21249;-91
2021/01/07 11:57:02;;;;;;;11.90;10.80;;;4.80;99.90;;;;;;4948524;28;20632;-92
2021/01/07 11:59:31;;;;;;;12.63;11.43;;;4.80;99.90;;;;;;4949429;28;21174;-91
2021/01/07 12:01:58;;;;;;;13.13;11.87;;;5.00;99.90;;;;;;4954158;28;20662;-91
2021/01/07 12:04:26;;;;;;;12.83;11.67;;;4.90;99.90;;;;;;4948668;28;21474;-90
2021/01/07 12:07:00;;;;;;;12.17;11.03;;;4.90;99.90;;;;;;4960203;28;20618;-92
2021/01/07 12:09:33;;;;;;;13.40;12.00;;;4.80;99.90;;;;;;4962265;28;20646;-92
2021/01/07 12:12:05;;;;;;;12.60;11.47;;;4.80;99.90;;;;;;4950650;28;20647;-91
2021/01/07 12:14:42;;;;;;;12.63;11.37;;;4.70;99.90;;;;;;4951538;28;20639;-92
2021/01/07 12:17:09;;;;;;;12.40;10.70;;;4.50;99.90;;;;;;4930675;28;20656;-91
2021/01/07 12:19:36;;;;;;;12.20;11.07;;;4.60;99.90;;;;;;4947606;28;21092;-92
2021/01/07 12:22:04;;;;;;;12.57;11.43;;;4.60;99.90;;;;;;4951559;28;21093;-91
2021/01/07 12:24:33;;;;;;;11.97;10.77;;;4.70;99.90;;;;;;4937648;28;20659;-92
2021/01/07 12:27:07;;;;;;;12.40;11.30;;;4.60;99.90;;;;;;4955827;28;20646;-92
2021/01/07 12:29:37;;;;;;;13.47;12.07;;;4.60;99.90;;;;;;4955757;28;20708;-92
2021/01/07 12:32:09;;;;;;;13.27;12.10;;;4.60;99.90;;;;;;4945651;28;20768;-91
2021/01/07 12:34:44;;;;;;;14.03;12.80;;;4.60;99.90;;;;;;4945265;28;20642;-91
2021/01/07 12:37:14;;;;;;;14.30;12.73;;;4.50;99.90;;;;;;4949255;28;20715;-91
2021/01/07 12:39:54;;;;;;;13.13;11.80;;;4.40;99.90;;;;;;4933093;29;21176;-92
2021/01/07 12:42:28;;;;;;;15.33;14.03;;;4.40;99.90;;;;;;4943809;28;21308;-92
2021/01/07 12:44:57;;;;;;;13.87;12.67;;;4.40;99.90;;;;;;4950682;28;21252;-91
2021/01/07 12:47:23;;;;;;;13.33;12.17;;;4.40;99.90;;;;;;4948778;28;20635;-92
2021/01/07 12:49:51;;;;;;;14.90;13.57;;;4.40;99.90;;;;;;4949635;28;20665;-92
2021/01/07 12:52:19;;;;;;;15.00;13.47;;;4.20;99.90;;;;;;4946920;28;20669;-91
2021/01/07 12:54:45;;;;;;;13.80;12.60;;;4.30;99.90;;;;;;4948664;28;20631;-91
2021/01/07 12:57:15;;;;;;;14.50;13.30;;;4.30;99.90;;;;;;4949411;28;20615;-91
2021/01/07 12:59:55;;;;;;;13.80;12.60;;;4.40;99.90;;;;;;4947161;28;20650;-91
2021/01/07 13:02:31;;;;;;;12.67;11.57;;;4.40;99.90;;;;;;4927184;28;20681;-92
2021/01/07 13:05:08;;;;;;;13.40;12.20;;;4.40;99.90;;;;;;4948643;28;20660;-92
2021/01/07 13:07:36;;;;;;;12.00;10.90;;;4.40;99.90;;;;;;4931756;28;20655;-91
2021/01/07 13:10:05;;;;;;;12.07;10.97;;;4.10;99.90;;;;;;4950917;28;20647;-91
2021/01/07 13:12:33;;;;;;;12.17;11.07;;;4.20;99.90;;;;;;4942930;28;20759;-91
2021/01/07 13:15:05;;;;;;;12.40;11.30;;;4.20;99.90;;;;;;4945132;28;20654;-90
2021/01/07 13:17:42;;;;;;;11.60;10.50;;;4.20;99.90;;;;;;4948503;28;20656;-91
2021/01/07 13:20:10;;;;;;;11.90;10.77;;;4.20;99.90;;;;;;4939083;28;20658;-91
2021/01/07 13:22:39;;;;;;;11.77;10.67;;;4.30;99.90;;;;;;4948788;28;20682;-92
2021/01/07 13:25:09;;;;;;;10.87;9.90;;;4.30;99.90;;;;;;4945965;28;20647;-91
2021/01/07 13:27:36;;;;;;;12.70;11.50;;;4.30;99.90;;;;;;4941265;28;20693;-92
2021/01/07 13:30:05;;;;;;;12.07;10.87;;;4.10;99.90;;;;;;4949394;28;20647;-90
2021/01/07 13:32:32;;;;;;;11.93;10.73;;;4.10;99.90;;;;;;4942725;28;20747;-91
2021/01/07 13:34:59;;;;;;;11.70;10.50;;;4.10;99.90;;;;;;4930968;28;20698;-92
2021/01/07 13:37:26;;;;;;;12.43;11.30;;;4.10;99.90;;;;;;4940799;28;20660;-92
2021/01/07 13:40:00;;;;;;;12.40;11.20;;;4.10;99.90;;;;;;4949170;28;20639;-91
2021/01/07 13:42:27;;;;;;;11.87;10.77;;;4.10;99.90;;;;;;4944547;28;20686;-91
2021/01/07 13:44:58;;;;;;;10.70;9.80;;;4.10;99.90;;;;;;4947797;28;20653;-91
2021/01/07 13:47:26;;;;;;;12.57;11.27;;;4.10;99.90;;;;;;4944464;28;20663;-91
2021/01/07 13:49:59;;;;;;;12.07;10.97;;;4.00;99.90;;;;;;4945132;28;21028;-92
2021/01/07 13:52:32;;;;;;;13.07;11.87;;;3.90;99.90;;;;;;4941238;28;20666;-91
2021/01/07 13:55:06;;;;;;;11.70;10.70;;;3.90;99.90;;;;;;4939931;28;21003;-92
2021/01/07 13:57:32;;;;;;;11.57;10.43;;;3.80;99.90;;;;;;4932474;28;20701;-92
2021/01/07 13:59:59;;;;;;;12.37;11.37;;;3.70;99.90;;;;;;4945574;28;20647;-92
2021/01/07 14:02:27;;;;;;;11.93;10.77;;;3.70;99.90;;;;;;4943455;28;21439;-92
2021/01/07 14:04:54;;;;;;;11.50;10.50;;;3.60;99.90;;;;;;4946418;28;20672;-92
2021/01/07 14:07:25;;;;;;;11.17;10.17;;;3.60;99.90;;;;;;4954422;28;20649;-92
2021/01/07 14:09:57;;;;;;;13.37;12.17;;;3.60;99.90;;;;;;4953697;28;20643;-92
2021/01/07 14:12:29;;;;;;;12.10;11.00;;;3.70;99.90;;;;;;4948406;28;20666;-94
2021/01/07 14:14:58;;;;;;;11.97;10.87;;;3.70;99.90;;;;;;4948975;28;20660;-93
2021/01/07 14:17:27;;;;;;;11.67;10.67;;;3.70;99.90;;;;;;4953801;28;21144;-93
2021/01/07 14:19:54;;;;;;;11.90;10.80;;;3.70;99.90;;;;;;4954827;28;20761;-94
2021/01/07 14:22:20;;;;;;;12.83;11.50;;;3.80;99.90;;;;;;4949273;28;20667;-94
2021/01/07 14:24:57;;;;;;;12.37;11.30;;;3.70;99.90;;;;;;4955108;28;20763;-94
2021/01/07 14:27:45;;;;;;;12.90;11.80;;;3.80;99.90;;;;;;4955319;28;20879;-95
2021/01/07 14:30:15;;;;;;;13.00;11.80;;;3.80;99.90;;;;;;4956176;28;20655;-95
2021/01/07 14:32:45;;;;;;;12.47;11.27;;;3.90;99.90;;;;;;4952985;28;20835;-95
2021/01/07 14:35:16;;;;;;;13.17;11.97;;;3.80;99.90;;;;;;4955755;28;20651;-93
2021/01/07 14:37:44;;;;;;;15.53;14.03;;;3.70;99.90;;;;;;4955443;28;20700;-94
2021/01/07 14:40:18;;;;;;;13.20;12.00;;;3.70;99.90;;;;;;4954509;28;20649;-92